Caribe Legend — V2ST — position and weather

sailwx.info

Track history (hours):
 
Tides and Currents Weather Stations Pressure Air Temp Water Temp Dewpoint Dewpoint Depression Visibility Wind Speed Wind Dir Waves Ship Positions

Caribe Legend

Last reported at 2017-Nov-19 03:07 UTC. Time now 2017-Nov-19 18:20 UTC.
Position N 26°45' W 079°49'.

Length 100 m; draft 6 m.

Type: Cargo ship. MMSI: 304598000.

Date/timePositionNaut miles runAvg speedWind from/ knotsBaromVisibWave heightAir tempDewpointWater temp
2017-Nov-19 03:07N 26°45' W 079°49'113.1
2017-Nov-19 03:00N 26°45' W 079°50'2 4.2
2017-Nov-19 02:29N 26°46' W 079°53'1 2.1
2017-Nov-19 01:59N 26°45' W 079°53'1 2.7
2017-Nov-19 01:29N 26°43' W 079°53'1 2.5
2017-Nov-19 00:59N 26°42' W 079°53'3 6.5
2017-Nov-19 00:31N 26°43' W 079°56'611.9
2017-Nov-19 00:00N 26°46' W 080°02'1 2.6
2017-Nov-18 23:30N 26°46' W 080°03'0 0.0
2017-Nov-18 23:01N 26°46' W 080°03'0 0.0
2017-Nov-18 22:31N 26°46' W 080°03'0 0.0
2017-Nov-18 22:01N 26°46' W 080°03'0 0.0
2017-Nov-18 21:31N 26°46' W 080°03'0 0.0
2017-Nov-18 21:01N 26°46' W 080°03'0 0.0
2017-Nov-18 20:31N 26°46' W 080°03'0 0.0
2017-Nov-18 20:00N 26°46' W 080°03'0 0.0
2017-Nov-18 19:31N 26°46' W 080°03'0 0.0
2017-Nov-18 19:01N 26°46' W 080°03'0 0.0
2017-Nov-18 18:31N 26°46' W 080°03'0 0.0
2017-Nov-18 18:01N 26°46' W 080°03'0 0.0
2017-Nov-18 17:31N 26°46' W 080°03'0 0.0
2017-Nov-18 17:00N 26°46' W 080°03'0 0.0
2017-Nov-18 16:30N 26°46' W 080°03'0 0.0
2017-Nov-18 15:59N 26°46' W 080°03'0 0.0
2017-Nov-18 15:31N 26°46' W 080°03'0 0.0
2017-Nov-18 15:01N 26°46' W 080°03'0 0.5
2017-Nov-18 14:31N 26°46' W 080°03'2 3.3
2017-Nov-18 14:00N 26°46' W 080°01'3 5.7
2017-Nov-18 13:30N 26°45' W 079°58'612.4
2017-Nov-18 13:00N 26°43' W 079°51'7 0.2
2017-Nov-17 02:36N 26°41' W 079°45'412.3
2017-Nov-17 02:15N 26°42' W 079°49'13 1.5
2017-Nov-16 17:30N 26°46' W 080°03'0 0.0
2017-Nov-16 16:57N 26°46' W 080°03'0 0.0
2017-Nov-16 16:30N 26°46' W 080°03'0 0.0
2017-Nov-16 16:00N 26°46' W 080°03'0 0.0
2017-Nov-16 15:30N 26°46' W 080°03'0 0.0
2017-Nov-16 15:00N 26°46' W 080°03'0 0.0
2017-Nov-16 14:30N 26°46' W 080°03'0 0.0
2017-Nov-16 14:00N 26°46' W 080°03'1 1.5
2017-Nov-16 13:30N 26°46' W 080°02'2 3.3
2017-Nov-16 13:00N 26°45' W 080°01'4 8.3
2017-Nov-16 12:30N 26°42' W 079°58'5 9.8
2017-Nov-16 12:00N 26°43' W 079°52'6 9.7
2017-Nov-16 11:23N 26°43' W 079°45'2 0.1
2017-Nov-15 02:04N 26°41' W 079°47'113.1
2017-Nov-15 02:01N 26°42' W 079°48'713.4
2017-Nov-15 01:31N 26°43' W 079°56'713.1
2017-Nov-15 01:00N 26°46' W 080°02'1 1.7
2017-Nov-15 00:29N 26°46' W 080°03'0 0.0
2017-Nov-14 23:59N 26°46' W 080°03'0 0.0
2017-Nov-14 23:29N 26°46' W 080°03'0 0.0
2017-Nov-14 22:59N 26°46' W 080°03'0 0.0
2017-Nov-14 22:29N 26°46' W 080°03'0 0.0
2017-Nov-14 21:59N 26°46' W 080°03'0 0.0
2017-Nov-14 21:29N 26°46' W 080°03'0 0.0
2017-Nov-14 20:59N 26°46' W 080°03'0 0.0
2017-Nov-14 20:26N 26°46' W 080°03'0 0.0
2017-Nov-14 19:56N 26°46' W 080°03'0 0.0
2017-Nov-14 19:29N 26°46' W 080°03'0 0.0
2017-Nov-14 18:59N 26°46' W 080°03'0 0.0
2017-Nov-14 18:26N 26°46' W 080°03'0 0.0
2017-Nov-14 17:59N 26°46' W 080°03'0 0.0
2017-Nov-14 17:29N 26°46' W 080°03'0 0.0
2017-Nov-14 16:59N 26°46' W 080°03'0 0.0
2017-Nov-14 16:29N 26°46' W 080°03'0 0.0
2017-Nov-14 15:59N 26°46' W 080°03'0 0.0
2017-Nov-14 15:29N 26°46' W 080°03'0 0.0
2017-Nov-14 14:56N 26°46' W 080°03'0 0.0
2017-Nov-14 14:29N 26°46' W 080°03'0 0.0
2017-Nov-14 13:59N 26°46' W 080°03'0 0.0
2017-Nov-14 13:29N 26°46' W 080°03'0 0.6
2017-Nov-14 13:00N 26°46' W 080°03'510.5
2017-Nov-14 12:30N 26°45' W 079°57'611.8
2017-Nov-14 12:00N 26°45' W 079°50'10 0.2
2017-Nov-12 13:21N 26°46' W 080°02'1 3.6
2017-Nov-12 12:59N 26°46' W 080°03'0 0.0
2017-Nov-12 12:29N 26°46' W 080°03'0 0.0
2017-Nov-12 11:56N 26°46' W 080°03'0 0.0
2017-Nov-12 11:26N 26°46' W 080°03'0 0.0
2017-Nov-12 10:56N 26°46' W 080°03'0 0.0
2017-Nov-12 10:29N 26°46' W 080°03'0 0.0
2017-Nov-12 09:59N 26°46' W 080°03'0 0.0
2017-Nov-12 09:29N 26°46' W 080°03'0 0.0
2017-Nov-12 08:59N 26°46' W 080°03'0 0.0
2017-Nov-12 08:29N 26°46' W 080°03'0 0.0
2017-Nov-12 07:59N 26°46' W 080°03'0 0.0
2017-Nov-12 07:29N 26°46' W 080°03'0 0.0
2017-Nov-12 06:59N 26°46' W 080°03'0 0.0
2017-Nov-12 06:29N 26°46' W 080°03'0 0.0
2017-Nov-12 05:59N 26°46' W 080°03'0 0.0
2017-Nov-12 05:26N 26°46' W 080°03'0 0.0
2017-Nov-12 04:59N 26°46' W 080°03'0 0.0
2017-Nov-12 04:20N 26°46' W 080°03'0 0.0
2017-Nov-12 03:50N 26°46' W 080°03'0 0.0
2017-Nov-11 19:35N 26°46' W 080°03'0 0.0
2017-Nov-11 19:23N 26°46' W 080°03'0 0.0
2017-Nov-11 18:59N 26°46' W 080°03'0 0.0
2017-Nov-11 18:29N 26°46' W 080°03'0 0.0
2017-Nov-11 17:59N 26°46' W 080°03'0 0.0
2017-Nov-11 17:29N 26°46' W 080°03'0 0.0
2017-Nov-11 16:56N 26°46' W 080°03'0 0.0
2017-Nov-11 16:29N 26°46' W 080°03'0 0.0
2017-Nov-11 15:59N 26°46' W 080°03'0 0.0
2017-Nov-11 15:26N 26°46' W 080°03'0 0.2
2017-Nov-11 13:14N 26°46' W 080°02'2 7.9
2017-Nov-11 13:00N 26°46' W 080°01'4 8.5
2017-Nov-11 12:30N 26°44' W 079°56'126 4.7
2017-Nov-10 09:37N 25°54' W 077°47'114.0
2017-Nov-10 09:30N 25°55' W 077°48'714.0
2017-Nov-10 09:00N 25°58' W 077°55'714.1
2017-Nov-10 08:30N 26°01' W 078°03'714.1
2017-Nov-10 08:00N 26°03' W 078°10'713.9
2017-Nov-10 07:29N 26°06' W 078°17'10311.0
2017-Nov-09 22:07N 26°46' W 080°03'0 0.0
2017-Nov-09 21:58N 26°46' W 080°03'0 0.0
2017-Nov-09 21:22N 26°46' W 080°03'0 0.0
2017-Nov-09 20:58N 26°46' W 080°03'0 0.0
2017-Nov-09 20:30N 26°46' W 080°03'0 0.0
2017-Nov-09 20:00N 26°46' W 080°03'0 0.0
2017-Nov-09 19:21N 26°46' W 080°03'0 0.0
2017-Nov-09 18:57N 26°46' W 080°03'0 0.0
2017-Nov-09 18:30N 26°46' W 080°03'0 0.0
2017-Nov-09 17:57N 26°46' W 080°03'0 0.0
2017-Nov-09 17:27N 26°46' W 080°03'0 0.0
2017-Nov-09 17:00N 26°46' W 080°03'0 0.0
2017-Nov-09 16:24N 26°46' W 080°03'0 0.0
2017-Nov-09 16:00N 26°46' W 080°03'0 0.0
2017-Nov-09 15:30N 26°46' W 080°03'0 0.0
2017-Nov-09 15:00N 26°46' W 080°03'0 0.0
2017-Nov-09 14:30N 26°46' W 080°03'0 0.0
2017-Nov-09 13:45N 26°46' W 080°03'0 0.0
2017-Nov-09 13:28N 26°46' W 080°03'  
Track history (hours):
 
Tides and Currents Weather Stations Pressure Air Temp Water Temp Dewpoint Dewpoint Depression Visibility Wind Speed Wind Dir Waves Ship Positions

Caribe Legend

Last reported at 2017-Nov-19 03:07 UTC. Time now 2017-Nov-19 18:20 UTC.
Position N 26°45' W 079°49'.

Length 100 m; draft 6 m.

Type: Cargo ship. MMSI: 304598000.

Date/timePositionNaut miles runAvg speedWind from/ knotsBaromVisibWave heightAir tempDewpointWater temp
2017-Nov-19 03:07N 26°45' W 079°49'113.1
2017-Nov-19 03:00N 26°45' W 079°50'2 4.2
2017-Nov-19 02:29N 26°46' W 079°53'1 2.1
2017-Nov-19 01:59N 26°45' W 079°53'1 2.7
2017-Nov-19 01:29N 26°43' W 079°53'1 2.5
2017-Nov-19 00:59N 26°42' W 079°53'3 6.5
2017-Nov-19 00:31N 26°43' W 079°56'611.9
2017-Nov-19 00:00N 26°46' W 080°02'1 2.6
2017-Nov-18 23:30N 26°46' W 080°03'0 0.0
2017-Nov-18 23:01N 26°46' W 080°03'0 0.0
2017-Nov-18 22:31N 26°46' W 080°03'0 0.0
2017-Nov-18 22:01N 26°46' W 080°03'0 0.0
2017-Nov-18 21:31N 26°46' W 080°03'0 0.0
2017-Nov-18 21:01N 26°46' W 080°03'0 0.0
2017-Nov-18 20:31N 26°46' W 080°03'0 0.0
2017-Nov-18 20:00N 26°46' W 080°03'0 0.0
2017-Nov-18 19:31N 26°46' W 080°03'0 0.0
2017-Nov-18 19:01N 26°46' W 080°03'0 0.0
2017-Nov-18 18:31N 26°46' W 080°03'0 0.0
2017-Nov-18 18:01N 26°46' W 080°03'0 0.0
2017-Nov-18 17:31N 26°46' W 080°03'0 0.0
2017-Nov-18 17:00N 26°46' W 080°03'0 0.0
2017-Nov-18 16:30N 26°46' W 080°03'0 0.0
2017-Nov-18 15:59N 26°46' W 080°03'0 0.0
2017-Nov-18 15:31N 26°46' W 080°03'0 0.0
2017-Nov-18 15:01N 26°46' W 080°03'0 0.5
2017-Nov-18 14:31N 26°46' W 080°03'2 3.3
2017-Nov-18 14:00N 26°46' W 080°01'3 5.7
2017-Nov-18 13:30N 26°45' W 079°58'612.4
2017-Nov-18 13:00N 26°43' W 079°51'7 0.2
2017-Nov-17 02:36N 26°41' W 079°45'412.3
2017-Nov-17 02:15N 26°42' W 079°49'13 1.5
2017-Nov-16 17:30N 26°46' W 080°03'0 0.0
2017-Nov-16 16:57N 26°46' W 080°03'0 0.0
2017-Nov-16 16:30N 26°46' W 080°03'0 0.0
2017-Nov-16 16:00N 26°46' W 080°03'0 0.0
2017-Nov-16 15:30N 26°46' W 080°03'0 0.0
2017-Nov-16 15:00N 26°46' W 080°03'0 0.0
2017-Nov-16 14:30N 26°46' W 080°03'0 0.0
2017-Nov-16 14:00N 26°46' W 080°03'1 1.5
2017-Nov-16 13:30N 26°46' W 080°02'2 3.3
2017-Nov-16 13:00N 26°45' W 080°01'4 8.3
2017-Nov-16 12:30N 26°42' W 079°58'5 9.8
2017-Nov-16 12:00N 26°43' W 079°52'6 9.7
2017-Nov-16 11:23N 26°43' W 079°45'2 0.1
2017-Nov-15 02:04N 26°41' W 079°47'113.1
2017-Nov-15 02:01N 26°42' W 079°48'713.4
2017-Nov-15 01:31N 26°43' W 079°56'713.1
2017-Nov-15 01:00N 26°46' W 080°02'1 1.7
2017-Nov-15 00:29N 26°46' W 080°03'0 0.0
2017-Nov-14 23:59N 26°46' W 080°03'0 0.0
2017-Nov-14 23:29N 26°46' W 080°03'0 0.0
2017-Nov-14 22:59N 26°46' W 080°03'0 0.0
2017-Nov-14 22:29N 26°46' W 080°03'0 0.0
2017-Nov-14 21:59N 26°46' W 080°03'0 0.0
2017-Nov-14 21:29N 26°46' W 080°03'0 0.0
2017-Nov-14 20:59N 26°46' W 080°03'0 0.0
2017-Nov-14 20:26N 26°46' W 080°03'0 0.0
2017-Nov-14 19:56N 26°46' W 080°03'0 0.0
2017-Nov-14 19:29N 26°46' W 080°03'0 0.0
2017-Nov-14 18:59N 26°46' W 080°03'0 0.0
2017-Nov-14 18:26N 26°46' W 080°03'0 0.0
2017-Nov-14 17:59N 26°46' W 080°03'0 0.0
2017-Nov-14 17:29N 26°46' W 080°03'0 0.0
2017-Nov-14 16:59N 26°46' W 080°03'0 0.0
2017-Nov-14 16:29N 26°46' W 080°03'0 0.0
2017-Nov-14 15:59N 26°46' W 080°03'0 0.0
2017-Nov-14 15:29N 26°46' W 080°03'0 0.0
2017-Nov-14 14:56N 26°46' W 080°03'0 0.0
2017-Nov-14 14:29N 26°46' W 080°03'0 0.0
2017-Nov-14 13:59N 26°46' W 080°03'0 0.0
2017-Nov-14 13:29N 26°46' W 080°03'0 0.6
2017-Nov-14 13:00N 26°46' W 080°03'510.5
2017-Nov-14 12:30N 26°45' W 079°57'611.8
2017-Nov-14 12:00N 26°45' W 079°50'10 0.2
2017-Nov-12 13:21N 26°46' W 080°02'1 3.6
2017-Nov-12 12:59N 26°46' W 080°03'0 0.0
2017-Nov-12 12:29N 26°46' W 080°03'0 0.0
2017-Nov-12 11:56N 26°46' W 080°03'0 0.0
2017-Nov-12 11:26N 26°46' W 080°03'0 0.0
2017-Nov-12 10:56N 26°46' W 080°03'0 0.0
2017-Nov-12 10:29N 26°46' W 080°03'0 0.0
2017-Nov-12 09:59N 26°46' W 080°03'0 0.0
2017-Nov-12 09:29N 26°46' W 080°03'0 0.0
2017-Nov-12 08:59N 26°46' W 080°03'0 0.0
2017-Nov-12 08:29N 26°46' W 080°03'0 0.0
2017-Nov-12 07:59N 26°46' W 080°03'0 0.0
2017-Nov-12 07:29N 26°46' W 080°03'0 0.0
2017-Nov-12 06:59N 26°46' W 080°03'0 0.0
2017-Nov-12 06:29N 26°46' W 080°03'0 0.0
2017-Nov-12 05:59N 26°46' W 080°03'0 0.0
2017-Nov-12 05:26N 26°46' W 080°03'0 0.0
2017-Nov-12 04:59N 26°46' W 080°03'0 0.0
2017-Nov-12 04:20N 26°46' W 080°03'0 0.0
2017-Nov-12 03:50N 26°46' W 080°03'0 0.0
2017-Nov-11 19:35N 26°46' W 080°03'0 0.0
2017-Nov-11 19:23N 26°46' W 080°03'0 0.0
2017-Nov-11 18:59N 26°46' W 080°03'0 0.0
2017-Nov-11 18:29N 26°46' W 080°03'0 0.0
2017-Nov-11 17:59N 26°46' W 080°03'0 0.0
2017-Nov-11 17:29N 26°46' W 080°03'0 0.0
2017-Nov-11 16:56N 26°46' W 080°03'0 0.0
2017-Nov-11 16:29N 26°46' W 080°03'0 0.0
2017-Nov-11 15:59N 26°46' W 080°03'0 0.0
2017-Nov-11 15:26N 26°46' W 080°03'0 0.2
2017-Nov-11 13:14N 26°46' W 080°02'2 7.9
2017-Nov-11 13:00N 26°46' W 080°01'4 8.5
2017-Nov-11 12:30N 26°44' W 079°56'126 4.7
2017-Nov-10 09:37N 25°54' W 077°47'114.0
2017-Nov-10 09:30N 25°55' W 077°48'714.0
2017-Nov-10 09:00N 25°58' W 077°55'714.1
2017-Nov-10 08:30N 26°01' W 078°03'714.1
2017-Nov-10 08:00N 26°03' W 078°10'713.9
2017-Nov-10 07:29N 26°06' W 078°17'10311.0
2017-Nov-09 22:07N 26°46' W 080°03'0 0.0
2017-Nov-09 21:58N 26°46' W 080°03'0 0.0
2017-Nov-09 21:22N 26°46' W 080°03'0 0.0
2017-Nov-09 20:58N 26°46' W 080°03'0 0.0
2017-Nov-09 20:30N 26°46' W 080°03'0 0.0
2017-Nov-09 20:00N 26°46' W 080°03'0 0.0
2017-Nov-09 19:21N 26°46' W 080°03'0 0.0
2017-Nov-09 18:57N 26°46' W 080°03'0 0.0
2017-Nov-09 18:30N 26°46' W 080°03'0 0.0
2017-Nov-09 17:57N 26°46' W 080°03'0 0.0
2017-Nov-09 17:27N 26°46' W 080°03'0 0.0
2017-Nov-09 17:00N 26°46' W 080°03'0 0.0
2017-Nov-09 16:24N 26°46' W 080°03'0 0.0
2017-Nov-09 16:00N 26°46' W 080°03'0 0.0
2017-Nov-09 15:30N 26°46' W 080°03'0 0.0
2017-Nov-09 15:00N 26°46' W 080°03'0 0.0
2017-Nov-09 14:30N 26°46' W 080°03'0 0.0
2017-Nov-09 13:45N 26°46' W 080°03'0 0.0
2017-Nov-09 13:28N 26°46' W 080°03'  

Dump ship's entire track history